createdAt,value
2018-01-18T00:00:56.166Z,0
2018-01-18T00:02:06.149Z,0
2018-01-18T00:03:16.125Z,0
2018-01-18T00:04:26.104Z,0
2018-01-18T00:05:36.087Z,0
2018-01-18T00:06:46.064Z,0
2018-01-18T00:07:56.041Z,0
2018-01-18T00:09:05.749Z,0
2018-01-18T00:10:15.461Z,0
2018-01-18T00:11:25.437Z,0
2018-01-18T00:12:35.419Z,0
2018-01-18T00:13:45.395Z,0
2018-01-18T00:14:55.372Z,0
2018-01-18T00:16:05.349Z,0
2018-01-18T00:17:15.062Z,0
2018-01-18T00:18:25.037Z,0
2018-01-18T00:19:34.483Z,0
2018-01-18T00:20:43.926Z,0
2018-01-18T00:21:53.637Z,0
2018-01-18T00:23:03.612Z,0
2018-01-18T00:24:13.584Z,0
2018-01-18T00:25:23.559Z,0
2018-01-18T00:26:33.002Z,0
2018-01-18T00:27:42.974Z,0
2018-01-18T00:28:52.951Z,0
2018-01-18T00:30:02.924Z,0
2018-01-18T00:31:12.105Z,0
2018-01-18T00:32:22.076Z,0
2018-01-18T00:33:32.059Z,0
2018-01-18T00:34:42.036Z,0
2018-01-18T00:35:52.013Z,0
2018-01-18T00:37:01.985Z,0
2018-01-18T00:38:11.961Z,0
2018-01-18T00:39:21.935Z,0
2018-01-18T00:40:31.648Z,0
2018-01-18T00:41:41.366Z,0
2018-01-18T00:42:51.339Z,0
2018-01-18T00:44:01.045Z,0
2018-01-18T00:45:11.021Z,0
2018-01-18T00:46:20.727Z,0
2018-01-18T00:47:30.438Z,0
2018-01-18T00:48:40.426Z,0
2018-01-18T00:49:50.136Z,0
2018-01-18T00:51:00.112Z,0
2018-01-18T00:52:09.825Z,0
2018-01-18T00:53:19.800Z,0
2018-01-18T00:54:29.829Z,0
2018-01-18T00:55:39.545Z,0
2018-01-18T00:56:49.517Z,0
2018-01-18T00:57:59.230Z,0
2018-01-18T00:59:08.938Z,0
2018-01-18T01:00:18.958Z,0
2018-01-18T01:01:28.938Z,0
2018-01-18T01:02:38.646Z,0
2018-01-18T01:03:48.091Z,0
2018-01-18T01:04:57.802Z,0
2018-01-18T01:06:07.510Z,0
2018-01-18T01:07:16.953Z,0
2018-01-18T01:08:26.927Z,0
2018-01-18T01:09:36.632Z,0
2018-01-18T01:10:46.340Z,0
2018-01-18T01:11:56.067Z,0
2018-01-18T01:13:05.774Z,0
2018-01-18T01:14:15.751Z,0
2018-01-18T01:15:25.457Z,0
2018-01-18T01:16:35.166Z,0
2018-01-18T01:17:45.243Z,0
2018-01-18T01:18:55.216Z,0
2018-01-18T01:20:04.923Z,0
2018-01-18T01:21:14.632Z,0
2018-01-18T01:22:24.350Z,0
2018-01-18T01:23:34.320Z,0
2018-01-18T01:24:44.299Z,0
2018-01-18T01:25:54.006Z,0
2018-01-18T01:27:03.978Z,0
2018-01-18T01:28:13.950Z,0
2018-01-18T01:29:23.930Z,0
2018-01-18T01:30:33.911Z,0
2018-01-18T01:31:43.885Z,0
2018-01-18T01:32:53.601Z,0
2018-01-18T01:34:03.045Z,0
2018-01-18T01:35:13.019Z,0
2018-01-18T01:36:22.995Z,0
2018-01-18T01:37:32.970Z,0
2018-01-18T01:38:42.687Z,0
2018-01-18T01:39:52.669Z,0
2018-01-18T01:41:02.379Z,0
2018-01-18T01:42:12.351Z,0
2018-01-18T01:43:22.056Z,0
2018-01-18T01:44:31.771Z,0
2018-01-18T01:45:41.747Z,0
2018-01-18T01:46:51.721Z,0
2018-01-18T01:48:01.696Z,0
2018-01-18T01:49:11.676Z,0
2018-01-18T01:50:21.129Z,0
2018-01-18T01:51:30.837Z,0
2018-01-18T01:52:40.822Z,0
2018-01-18T01:53:50.798Z,0
2018-01-18T01:55:00.779Z,0
2018-01-18T01:56:10.230Z,0
2018-01-18T01:57:20.275Z,0
2018-01-18T01:58:30.249Z,0
2018-01-18T01:59:39.958Z,0
2018-01-18T02:00:49.930Z,0
2018-01-18T02:01:59.378Z,0
2018-01-18T02:03:09.354Z,0
2018-01-18T02:04:19.332Z,0
2018-01-18T02:05:29.302Z,0
2018-01-18T02:06:39.279Z,0
2018-01-18T02:07:49.248Z,0
2018-01-18T02:08:59.013Z,0
2018-01-18T02:10:08.726Z,0
2018-01-18T02:11:18.694Z,0
2018-01-18T02:12:28.400Z,0
2018-01-18T02:13:38.372Z,0
2018-01-18T02:14:48.080Z,0
2018-01-18T02:15:58.056Z,0
2018-01-18T02:17:08.029Z,0
2018-01-18T02:18:17.734Z,0
2018-01-18T02:19:27.444Z,0
2018-01-18T02:20:37.152Z,0
2018-01-18T02:21:47.130Z,0
2018-01-18T02:22:56.851Z,0
2018-01-18T02:24:06.823Z,0
2018-01-18T02:25:16.796Z,0
2018-01-18T02:26:26.775Z,0
2018-01-18T02:27:36.483Z,0
2018-01-18T02:28:46.454Z,0
2018-01-18T02:29:56.164Z,0
2018-01-18T02:31:05.873Z,0
2018-01-18T02:32:15.593Z,0
2018-01-18T02:33:25.574Z,0
2018-01-18T02:34:35.545Z,0
2018-01-18T02:35:45.519Z,0
2018-01-18T02:36:55.235Z,0
2018-01-18T02:38:05.207Z,0
2018-01-18T02:39:15.260Z,0
2018-01-18T02:40:25.243Z,0
2018-01-18T02:41:34.954Z,0
2018-01-18T02:42:44.667Z,0
2018-01-18T02:43:54.638Z,0
2018-01-18T02:45:04.608Z,0
2018-01-18T02:46:14.591Z,0
2018-01-18T02:47:24.572Z,0
2018-01-18T02:48:34.018Z,0
2018-01-18T02:49:43.992Z,0
2018-01-18T02:50:54.018Z,0
2018-01-18T02:52:03.464Z,0
2018-01-18T02:53:13.483Z,0
2018-01-18T02:54:23.465Z,0
2018-01-18T02:55:33.446Z,0
2018-01-18T02:56:43.257Z,0
2018-01-18T02:57:52.970Z,0
2018-01-18T02:59:02.941Z,0
2018-01-18T03:00:12.654Z,0
2018-01-18T03:01:22.630Z,0
2018-01-18T03:02:32.335Z,0
2018-01-18T03:03:42.304Z,0
2018-01-18T03:04:52.015Z,0
2018-01-18T03:06:01.984Z,0
2018-01-18T03:07:11.958Z,0
2018-01-18T03:08:22.087Z,0
2018-01-18T03:09:31.802Z,0
2018-01-18T03:10:41.508Z,0
2018-01-18T03:11:51.216Z,0
2018-01-18T03:13:00.663Z,0
2018-01-18T03:14:10.633Z,0
2018-01-18T03:15:20.614Z,0
2018-01-18T03:16:30.318Z,0
2018-01-18T03:17:40.294Z,0
2018-01-18T03:18:50.000Z,0
2018-01-18T03:19:59.858Z,0
2018-01-18T03:21:09.568Z,0
2018-01-18T03:22:19.537Z,0
2018-01-18T03:23:29.517Z,0
2018-01-18T03:24:39.491Z,0
2018-01-18T03:25:49.513Z,0
2018-01-18T03:26:58.732Z,0
2018-01-18T03:28:08.441Z,0
2018-01-18T03:29:18.415Z,0
2018-01-18T03:30:28.137Z,0
2018-01-18T03:31:38.123Z,0
2018-01-18T03:32:48.117Z,0
2018-01-18T03:33:58.099Z,0
2018-01-18T03:35:08.080Z,0
2018-01-18T03:36:18.052Z,0
2018-01-18T03:37:28.031Z,0
2018-01-18T03:38:37.740Z,0
2018-01-18T03:39:47.714Z,0
2018-01-18T03:40:57.429Z,0
2018-01-18T03:42:06.872Z,0
2018-01-18T03:43:16.579Z,0
2018-01-18T03:44:26.554Z,0
2018-01-18T03:45:35.996Z,0
2018-01-18T03:46:45.705Z,0
2018-01-18T03:47:55.411Z,0
2018-01-18T03:49:04.860Z,0
2018-01-18T03:50:14.580Z,0
2018-01-18T03:51:24.292Z,0
2018-01-18T03:52:33.999Z,0
2018-01-18T03:53:43.974Z,0
2018-01-18T03:54:53.959Z,0
2018-01-18T03:56:03.931Z,0
2018-01-18T03:57:13.904Z,0
2018-01-18T03:58:23.878Z,0
2018-01-18T03:59:33.855Z,0
2018-01-18T04:00:43.566Z,0
2018-01-18T04:04:25.846Z,0
2018-01-18T04:05:35.559Z,0
2018-01-18T04:06:45.534Z,0
2018-01-18T04:07:55.504Z,0
2018-01-18T04:09:05.211Z,0
2018-01-18T04:10:14.921Z,0
2018-01-18T04:11:24.895Z,0
2018-01-18T04:12:34.867Z,0
2018-01-18T04:13:44.839Z,0
2018-01-18T04:14:54.288Z,0
2018-01-18T04:16:03.994Z,0
2018-01-18T04:17:13.703Z,0
2018-01-18T04:18:23.681Z,0
2018-01-18T04:19:33.659Z,0
2018-01-18T04:20:43.633Z,0
2018-01-18T04:21:53.610Z,0
2018-01-18T04:23:03.316Z,0
2018-01-18T04:24:13.027Z,0
2018-01-18T04:25:23.001Z,0
2018-01-18T04:26:32.709Z,0
2018-01-18T04:27:42.684Z,0
2018-01-18T04:28:52.128Z,0
2018-01-18T04:30:02.099Z,0
2018-01-18T04:31:12.078Z,0
2018-01-18T04:32:21.520Z,0
2018-01-18T04:33:31.232Z,0
2018-01-18T04:34:41.254Z,0
2018-01-18T04:35:51.225Z,0
2018-01-18T04:37:00.932Z,0
2018-01-18T04:38:10.114Z,0
2018-01-18T04:39:20.087Z,0
2018-01-18T04:40:29.796Z,0
2018-01-18T04:41:39.814Z,0
2018-01-18T04:42:49.789Z,0
2018-01-18T04:43:59.759Z,0
2018-01-18T04:45:09.470Z,0
2018-01-18T04:46:19.443Z,0
2018-01-18T04:47:29.151Z,0
2018-01-18T04:48:38.864Z,0
2018-01-18T04:49:48.571Z,0
2018-01-18T04:50:58.018Z,0
2018-01-18T04:52:08.099Z,0
2018-01-18T04:53:17.805Z,0
2018-01-18T04:54:27.517Z,0
2018-01-18T04:55:37.224Z,0
2018-01-18T04:56:46.938Z,0
2018-01-18T04:57:56.914Z,0
2018-01-18T04:59:06.888Z,0
2018-01-18T05:00:16.600Z,0
2018-01-18T05:01:26.570Z,0
2018-01-18T05:02:36.544Z,0
2018-01-18T05:03:46.516Z,0
2018-01-18T05:04:56.594Z,0
2018-01-18T05:06:06.572Z,0
2018-01-18T05:07:16.282Z,0
2018-01-18T05:08:25.722Z,0
2018-01-18T05:09:35.716Z,0
2018-01-18T05:10:45.422Z,0
2018-01-18T05:11:55.137Z,0
2018-01-18T05:13:05.207Z,0
2018-01-18T05:14:15.181Z,0
2018-01-18T05:15:24.887Z,0
2018-01-18T05:16:34.858Z,0
2018-01-18T05:17:44.836Z,0
2018-01-18T05:18:54.811Z,0
2018-01-18T05:20:04.790Z,0
2018-01-18T05:21:14.499Z,0
2018-01-18T05:22:24.205Z,0
2018-01-18T05:23:34.182Z,0
2018-01-18T05:24:44.220Z,0
2018-01-18T05:25:53.667Z,0
2018-01-18T05:27:03.376Z,0
2018-01-18T05:28:12.556Z,0
2018-01-18T05:29:22.530Z,0
2018-01-18T05:30:32.509Z,0
2018-01-18T05:31:42.527Z,0
2018-01-18T05:32:52.239Z,0
2018-01-18T05:34:01.947Z,0
2018-01-18T05:35:11.919Z,0
2018-01-18T05:36:21.891Z,0
2018-01-18T05:37:31.911Z,0
2018-01-18T05:38:41.665Z,0
2018-01-18T05:39:51.377Z,0
2018-01-18T05:41:01.353Z,0
2018-01-18T05:42:11.059Z,0
2018-01-18T05:43:20.774Z,0
2018-01-18T05:44:30.849Z,0
2018-01-18T05:45:40.821Z,0
2018-01-18T05:46:50.804Z,0
2018-01-18T05:48:00.781Z,0
2018-01-18T05:49:10.753Z,0
2018-01-18T05:50:20.462Z,0
2018-01-18T05:51:30.436Z,0
2018-01-18T05:52:40.415Z,0
2018-01-18T05:53:50.395Z,0
2018-01-18T05:55:00.365Z,0
2018-01-18T05:56:10.081Z,0
2018-01-18T05:57:20.181Z,0
2018-01-18T05:58:29.886Z,0
2018-01-18T05:59:39.878Z,0
2018-01-18T06:00:49.590Z,0
2018-01-18T06:01:59.349Z,0
2018-01-18T06:03:08.804Z,0
2018-01-18T06:04:17.721Z,0
2018-01-18T06:05:27.431Z,0
2018-01-18T06:06:37.148Z,0
2018-01-18T06:07:46.915Z,0
2018-01-18T06:08:56.358Z,0
2018-01-18T06:10:06.069Z,0
2018-01-18T06:11:15.776Z,0
2018-01-18T06:12:25.814Z,0
2018-01-18T06:13:35.966Z,0
2018-01-18T06:14:46.145Z,0
2018-01-18T06:15:56.122Z,0
2018-01-18T06:17:06.103Z,0
2018-01-18T06:18:15.733Z,0
2018-01-18T06:19:25.552Z,0
2018-01-18T06:20:35.296Z,0
2018-01-18T06:21:45.278Z,0
2018-01-18T06:22:55.040Z,0
2018-01-18T06:24:05.022Z,0
2018-01-18T06:25:14.730Z,0
2018-01-18T06:26:24.439Z,0
2018-01-18T06:27:34.413Z,0
2018-01-18T06:28:44.392Z,0
2018-01-18T06:29:54.101Z,0
2018-01-18T06:31:04.084Z,0
2018-01-18T06:32:14.057Z,0
2018-01-18T06:33:23.772Z,0
2018-01-18T06:34:33.742Z,0
2018-01-18T06:35:43.714Z,0
2018-01-18T06:36:53.422Z,0
2018-01-18T06:38:03.394Z,0
2018-01-18T06:39:13.376Z,0
2018-01-18T06:40:23.356Z,0
2018-01-18T06:41:33.065Z,0
2018-01-18T06:42:42.779Z,0
2018-01-18T06:43:52.230Z,0
2018-01-18T06:45:01.951Z,0
2018-01-18T06:46:11.924Z,0
2018-01-18T06:47:21.898Z,0
2018-01-18T06:48:31.607Z,0
2018-01-18T06:49:41.585Z,0
2018-01-18T06:50:51.558Z,0
2018-01-18T06:52:01.539Z,0
2018-01-18T06:53:11.520Z,0
2018-01-18T06:54:21.551Z,0
2018-01-18T06:55:30.995Z,0
2018-01-18T06:56:40.966Z,0
2018-01-18T06:57:50.940Z,0
2018-01-18T06:59:00.920Z,0
2018-01-18T07:00:10.735Z,0
2018-01-18T07:01:20.710Z,0
2018-01-18T07:02:30.685Z,0
2018-01-18T07:03:40.666Z,0
2018-01-18T07:04:50.640Z,0
2018-01-18T07:06:00.374Z,0
2018-01-18T07:07:10.393Z,0
2018-01-18T07:08:20.368Z,0
2018-01-18T07:09:30.343Z,0
2018-01-18T07:10:40.057Z,0
2018-01-18T07:11:49.868Z,0
2018-01-18T07:12:59.843Z,0
2018-01-18T07:14:09.554Z,0
2018-01-18T07:15:19.532Z,0
2018-01-18T07:16:29.510Z,0
2018-01-18T07:17:39.490Z,4
2018-01-18T07:18:49.263Z,4
2018-01-18T07:19:59.244Z,4
2018-01-18T07:21:09.222Z,0
2018-01-18T07:22:19.202Z,0
2018-01-18T07:23:29.182Z,4
2018-01-18T07:24:38.625Z,4
2018-01-18T07:25:48.070Z,4
2018-01-18T07:26:57.515Z,4
2018-01-18T07:28:06.966Z,4
2018-01-18T07:29:16.942Z,4
2018-01-18T07:30:26.649Z,8
2018-01-18T07:31:36.623Z,4
2018-01-18T07:32:46.617Z,4
2018-01-18T07:33:56.063Z,8
2018-01-18T07:35:06.131Z,8
2018-01-18T07:36:16.103Z,12
2018-01-18T07:37:26.079Z,12
2018-01-18T07:38:36.053Z,16
2018-01-18T07:39:45.494Z,12
2018-01-18T07:40:55.527Z,16
2018-01-18T07:42:05.235Z,20
2018-01-18T07:43:15.215Z,20
2018-01-18T07:44:25.192Z,24
2018-01-18T07:45:35.167Z,28
2018-01-18T07:46:45.146Z,28
2018-01-18T07:47:54.878Z,32
2018-01-18T07:49:04.857Z,36
2018-01-18T07:50:14.567Z,40
2018-01-18T07:51:24.538Z,40
2018-01-18T07:52:34.248Z,44
2018-01-18T07:53:43.956Z,52
2018-01-18T07:54:53.929Z,60
2018-01-18T07:56:03.905Z,64
2018-01-18T07:57:13.623Z,68
2018-01-18T07:58:23.645Z,72
2018-01-18T07:59:33.418Z,76
2018-01-18T08:00:43.134Z,80
2018-01-18T08:01:53.122Z,84
2018-01-18T08:03:03.103Z,92
2018-01-18T08:04:13.144Z,100
2018-01-18T08:05:22.855Z,104
2018-01-18T08:06:32.566Z,112
2018-01-18T08:07:42.276Z,116
2018-01-18T08:08:51.987Z,124
2018-01-18T08:10:01.437Z,132
2018-01-18T08:11:11.143Z,140
2018-01-18T08:12:20.852Z,156
2018-01-18T08:13:30.835Z,168
2018-01-18T08:14:40.543Z,168
2018-01-18T08:15:50.286Z,176
2018-01-18T08:17:00.138Z,192
2018-01-18T08:18:09.586Z,192
2018-01-18T08:19:19.611Z,200
2018-01-18T08:20:29.595Z,212
2018-01-18T08:21:39.405Z,228
2018-01-18T08:22:49.382Z,232
2018-01-18T08:23:59.356Z,248
2018-01-18T08:25:09.077Z,248
2018-01-18T08:26:19.049Z,256
2018-01-18T08:27:29.020Z,268
2018-01-18T08:28:38.992Z,280
2018-01-18T08:29:48.710Z,292
2018-01-18T08:30:58.421Z,316
2018-01-18T08:32:07.869Z,324
2018-01-18T08:33:17.691Z,324
2018-01-18T08:34:27.710Z,336
2018-01-18T08:35:37.419Z,348
2018-01-18T08:36:47.396Z,360
2018-01-18T08:37:56.840Z,368
2018-01-18T08:39:06.288Z,380
2018-01-18T08:40:16.265Z,408
2018-01-18T08:41:26.300Z,432
2018-01-18T08:42:35.976Z,444
2018-01-18T08:43:45.955Z,464
2018-01-18T08:44:55.931Z,488
2018-01-18T08:46:05.642Z,520
2018-01-18T08:47:15.615Z,544
2018-01-18T08:48:25.594Z,564
2018-01-18T08:49:35.304Z,568
2018-01-18T08:50:45.013Z,592
2018-01-18T08:51:54.729Z,620
2018-01-18T08:53:04.436Z,644
2018-01-18T08:54:14.412Z,664
2018-01-18T08:55:24.391Z,688
2018-01-18T08:56:34.374Z,692
2018-01-18T08:57:44.356Z,720
2018-01-18T08:58:53.810Z,756
2018-01-18T09:00:03.815Z,776
2018-01-18T09:01:13.794Z,800
2018-01-18T09:02:23.500Z,816
2018-01-18T09:03:33.479Z,832
2018-01-18T09:04:43.457Z,852
2018-01-18T09:05:53.164Z,892
2018-01-18T09:07:03.141Z,936
2018-01-18T09:08:13.747Z,972
2018-01-18T09:09:23.724Z,1008
2018-01-18T09:10:33.704Z,1032
2018-01-18T09:11:43.682Z,1056
2018-01-18T09:12:53.664Z,1072
2018-01-18T09:14:03.739Z,1112
2018-01-18T09:15:13.185Z,1136
2018-01-18T09:16:23.171Z,1232
2018-01-18T09:17:33.145Z,1288
2018-01-18T09:18:42.860Z,1312
2018-01-18T09:19:52.306Z,1356
2018-01-18T09:21:02.044Z,1372
2018-01-18T09:22:12.092Z,1404
2018-01-18T09:23:21.806Z,1440
2018-01-18T09:24:31.517Z,1468
2018-01-18T09:25:41.224Z,1452
2018-01-18T09:26:51.200Z,1416
2018-01-18T09:28:00.697Z,1400
2018-01-18T09:29:10.484Z,1368
2018-01-18T09:30:20.523Z,1332
2018-01-18T09:31:30.289Z,1312
2018-01-18T09:32:40.312Z,1284
2018-01-18T09:33:50.021Z,1256
2018-01-18T09:34:59.730Z,1244
2018-01-18T09:36:09.444Z,1244
2018-01-18T09:37:19.417Z,1280
2018-01-18T09:38:29.390Z,1316
2018-01-18T09:39:39.467Z,1368
2018-01-18T09:40:49.439Z,1392
2018-01-18T09:41:58.883Z,1416
2018-01-18T09:43:08.914Z,1476
2018-01-18T09:44:18.627Z,1564
2018-01-18T09:45:28.615Z,1576
2018-01-18T09:46:38.324Z,1576
2018-01-18T09:47:48.036Z,1560
2018-01-18T09:48:57.750Z,1556
2018-01-18T09:50:07.725Z,1580
2018-01-18T09:51:17.433Z,1588
2018-01-18T09:52:27.403Z,1584
2018-01-18T09:53:37.114Z,1596
2018-01-18T09:54:47.139Z,1604
2018-01-18T09:55:56.587Z,1648
2018-01-18T09:57:06.299Z,1696
2018-01-18T09:58:16.013Z,1744
2018-01-18T09:59:25.721Z,1780
2018-01-18T10:00:35.801Z,1804
2018-01-18T10:01:45.791Z,1836
2018-01-18T10:02:55.068Z,1836
2018-01-18T10:04:05.043Z,1812
2018-01-18T10:05:15.050Z,1824
2018-01-18T10:06:24.798Z,1796
2018-01-18T10:07:34.556Z,1772
2018-01-18T10:08:44.268Z,1756
2018-01-18T10:09:53.980Z,1752
2018-01-18T10:11:03.950Z,1744
2018-01-18T10:12:13.405Z,1796
2018-01-18T10:13:23.398Z,1888
2018-01-18T10:14:33.011Z,1948
2018-01-18T10:15:42.995Z,1988
2018-01-18T10:16:52.440Z,2016
2018-01-18T10:18:02.427Z,2024
2018-01-18T10:19:12.404Z,2060
2018-01-18T10:20:21.852Z,2124
2018-01-18T10:21:31.571Z,2204
2018-01-18T10:22:41.304Z,2288
2018-01-18T10:23:50.750Z,2364
2018-01-18T10:25:00.229Z,2392
2018-01-18T10:26:09.695Z,2368
2018-01-18T10:27:19.408Z,2372
2018-01-18T10:28:28.892Z,2428
2018-01-18T10:29:38.338Z,2508
2018-01-18T10:30:47.788Z,2556
2018-01-18T10:31:57.503Z,2612
2018-01-18T10:33:07.261Z,2656
2018-01-18T10:34:16.707Z,2724
2018-01-18T10:35:26.420Z,2844
2018-01-18T10:36:35.868Z,2920
2018-01-18T10:37:45.319Z,2904
2018-01-18T10:38:55.302Z,2876
2018-01-18T10:40:05.017Z,2916
2018-01-18T10:41:14.731Z,2920
2018-01-18T10:42:24.444Z,2852
2018-01-18T10:43:33.895Z,2828
2018-01-18T10:44:43.559Z,2828
2018-01-18T10:45:53.280Z,2836
2018-01-18T10:47:03.260Z,2844
2018-01-18T10:48:12.976Z,2856
2018-01-18T10:49:22.425Z,2872
2018-01-18T10:50:31.879Z,2892
2018-01-18T10:51:41.336Z,2948
2018-01-18T10:52:50.808Z,3000
2018-01-18T10:54:00.495Z,2964
2018-01-18T10:55:09.946Z,2968
2018-01-18T10:56:19.662Z,3020
2018-01-18T10:57:28.847Z,3080
2018-01-18T10:58:38.570Z,3140
2018-01-18T10:59:48.552Z,3208
2018-01-18T11:00:57.747Z,3184
2018-01-18T11:02:06.941Z,3052
2018-01-18T11:03:15.592Z,3000
2018-01-18T11:04:25.051Z,3016
2018-01-18T11:05:34.265Z,2984
2018-01-18T11:06:44.237Z,2948
2018-01-18T11:07:54.008Z,2968
2018-01-18T11:09:03.460Z,3032
2018-01-18T11:10:13.227Z,3064
2018-01-18T11:11:22.411Z,3008
2018-01-18T11:12:31.858Z,3020
2018-01-18T11:13:41.308Z,3080
2018-01-18T11:14:51.285Z,3116
2018-01-18T11:16:00.995Z,3140
2018-01-18T11:17:10.754Z,3228
2018-01-18T11:18:20.727Z,3328
2018-01-18T11:19:30.767Z,3444
2018-01-18T11:20:40.739Z,3500
2018-01-18T11:21:50.716Z,3524
2018-01-18T11:23:00.427Z,3508
2018-01-18T11:24:10.143Z,3580
2018-01-18T11:25:20.126Z,3688
2018-01-18T11:26:29.869Z,3712
2018-01-18T11:27:40.083Z,3676
2018-01-18T11:28:50.061Z,3716
2018-01-18T11:29:59.770Z,3860
2018-01-18T11:31:09.756Z,4020
2018-01-18T11:32:19.736Z,3996
2018-01-18T11:33:29.180Z,3828
2018-01-18T11:34:39.162Z,3748
2018-01-18T11:35:48.872Z,3656
2018-01-18T11:36:58.864Z,3708
2018-01-18T11:38:08.309Z,3656
2018-01-18T11:39:17.759Z,3616
2018-01-18T11:40:27.467Z,3548
2018-01-18T11:41:37.483Z,3536
2018-01-18T11:42:47.192Z,3512
2018-01-18T11:43:56.916Z,3536
2018-01-18T11:45:06.903Z,3452
2018-01-18T11:46:16.883Z,3364
2018-01-18T11:47:26.593Z,3364
2018-01-18T11:48:36.043Z,3376
2018-01-18T11:49:46.019Z,3312
2018-01-18T11:50:55.468Z,3328
2018-01-18T11:52:05.452Z,3396
2018-01-18T11:53:15.165Z,3448
2018-01-18T11:54:25.138Z,3404
2018-01-18T11:55:34.848Z,3304
2018-01-18T11:56:44.708Z,3300
2018-01-18T11:57:54.417Z,3392
2018-01-18T11:59:03.876Z,3392
2018-01-18T12:00:13.581Z,3324
2018-01-18T12:01:23.574Z,3212
2018-01-18T12:02:33.654Z,3180
2018-01-18T12:03:43.628Z,3228
2018-01-18T12:04:53.605Z,3300
2018-01-18T12:06:03.586Z,3292
2018-01-18T12:07:12.769Z,3260
2018-01-18T12:08:22.474Z,3284
2018-01-18T12:09:31.924Z,3336
2018-01-18T12:10:41.369Z,3336
2018-01-18T12:11:51.083Z,3292
2018-01-18T12:13:00.799Z,3268
2018-01-18T12:14:10.837Z,3268
2018-01-18T12:15:20.814Z,3244
2018-01-18T12:16:30.533Z,3208
2018-01-18T12:17:40.511Z,3200
2018-01-18T12:18:50.655Z,3260
2018-01-18T12:20:00.416Z,3296
2018-01-18T12:21:10.134Z,3268
2018-01-18T12:22:19.894Z,3188
2018-01-18T12:23:29.882Z,3120
2018-01-18T12:24:39.592Z,3108
2018-01-18T12:25:49.596Z,3100
2018-01-18T12:26:59.582Z,3040
2018-01-18T12:28:09.562Z,2940
2018-01-18T12:29:19.008Z,2856
2018-01-18T12:30:28.993Z,2820
2018-01-18T12:31:38.179Z,2796
2018-01-18T12:32:48.182Z,2800
2018-01-18T12:33:57.366Z,2820
2018-01-18T12:35:07.086Z,2820
2018-01-18T12:36:16.798Z,2776
2018-01-18T12:37:26.830Z,2704
2018-01-18T12:38:36.018Z,2628
2018-01-18T12:39:45.994Z,2552
2018-01-18T12:40:55.706Z,2520
2018-01-18T12:42:05.686Z,2500
2018-01-18T12:43:15.402Z,2468
2018-01-18T12:44:25.379Z,2436
2018-01-18T12:45:35.087Z,2376
2018-01-18T12:46:45.083Z,2340
2018-01-18T12:47:54.835Z,2312
2018-01-18T12:49:04.552Z,2304
2018-01-18T12:50:13.999Z,2320
2018-01-18T12:51:23.444Z,2344
2018-01-18T12:52:33.420Z,2336
2018-01-18T12:53:42.867Z,2308
2018-01-18T12:54:52.315Z,2260
2018-01-18T12:56:02.029Z,2216
2018-01-18T12:57:11.484Z,2176
2018-01-18T12:58:21.478Z,2124
2018-01-18T12:59:31.188Z,2080
2018-01-18T13:00:40.676Z,2052
2018-01-18T13:01:50.668Z,2036
2018-01-18T13:03:00.648Z,2032
2018-01-18T13:04:10.362Z,2036
2018-01-18T13:05:20.343Z,2048
2018-01-18T13:06:30.059Z,2064
2018-01-18T13:07:39.825Z,2080
2018-01-18T13:08:49.809Z,2080
2018-01-18T13:09:59.788Z,2076
2018-01-18T13:11:09.504Z,2072
2018-01-18T13:12:20.192Z,2044
2018-01-18T13:13:30.177Z,2012
2018-01-18T13:14:40.213Z,1976
2018-01-18T13:15:49.974Z,1928
2018-01-18T13:17:00.004Z,1880
2018-01-18T13:18:09.716Z,1836
2018-01-18T13:19:19.697Z,1784
2018-01-18T13:20:29.682Z,1716
2018-01-18T13:21:39.394Z,1648
2018-01-18T13:22:49.110Z,1588
2018-01-18T13:23:59.087Z,1532
2018-01-18T13:25:08.536Z,1488
2018-01-18T13:26:18.517Z,1448
2018-01-18T13:27:28.500Z,1424
2018-01-18T13:28:38.485Z,1404
2018-01-18T13:29:47.935Z,1396
2018-01-18T13:30:57.915Z,1408
2018-01-18T13:32:07.100Z,1420
2018-01-18T13:33:17.073Z,1424
2018-01-18T13:34:27.051Z,1420
2018-01-18T13:35:37.029Z,1388
2018-01-18T13:36:46.746Z,1356
2018-01-18T13:37:56.199Z,1336
2018-01-18T13:39:06.175Z,1308
2018-01-18T13:40:15.890Z,1276
2018-01-18T13:41:25.603Z,1236
2018-01-18T13:42:35.646Z,1196
2018-01-18T13:43:45.368Z,1160
2018-01-18T13:44:55.351Z,1124
2018-01-18T13:46:05.331Z,1104
2018-01-18T13:47:15.049Z,1088
2018-01-18T13:48:25.023Z,1064
2018-01-18T13:49:35.001Z,1036
2018-01-18T13:50:44.714Z,1000
2018-01-18T13:51:54.427Z,964
2018-01-18T13:53:04.407Z,928
2018-01-18T13:54:14.116Z,900
2018-01-18T13:55:24.158Z,880
2018-01-18T13:56:34.166Z,868
2018-01-18T13:57:43.875Z,856
2018-01-18T13:58:53.964Z,844
2018-01-18T14:00:03.412Z,832
2018-01-18T14:01:12.857Z,824
2018-01-18T14:02:22.568Z,812
2018-01-18T14:03:32.586Z,800
2018-01-18T14:04:42.566Z,784
2018-01-18T14:05:52.279Z,764
2018-01-18T14:07:01.992Z,740
2018-01-18T14:08:11.440Z,720
2018-01-18T14:09:20.889Z,704
2018-01-18T14:10:30.604Z,692
2018-01-18T14:11:40.583Z,676
2018-01-18T14:12:50.595Z,664
2018-01-18T14:14:00.324Z,648
2018-01-18T14:15:09.779Z,636
2018-01-18T14:16:19.766Z,624
2018-01-18T14:17:29.213Z,612
2018-01-18T14:18:38.923Z,600
2018-01-18T14:19:48.900Z,588
2018-01-18T14:20:58.398Z,568
2018-01-18T14:22:08.113Z,552
2018-01-18T14:23:17.833Z,532
2018-01-18T14:24:27.286Z,508
2018-01-18T14:25:36.728Z,488
2018-01-18T14:26:46.442Z,464
2018-01-18T14:27:56.160Z,440
2018-01-18T14:29:06.137Z,412
2018-01-18T14:30:15.588Z,396
2018-01-18T14:31:25.299Z,380
2018-01-18T14:32:35.277Z,364
2018-01-18T14:33:45.360Z,352
2018-01-18T14:34:55.407Z,344
2018-01-18T14:36:05.392Z,332
2018-01-18T14:37:14.836Z,320
2018-01-18T14:38:24.548Z,304
2018-01-18T14:39:34.259Z,288
2018-01-18T14:40:44.021Z,280
2018-01-18T14:41:54.073Z,268
2018-01-18T14:43:04.050Z,260
2018-01-18T14:44:13.765Z,248
2018-01-18T14:45:23.527Z,232
2018-01-18T14:46:32.974Z,220
2018-01-18T14:47:42.853Z,204
2018-01-18T14:48:52.593Z,192
2018-01-18T14:50:02.567Z,176
2018-01-18T14:51:12.644Z,160
2018-01-18T14:52:22.351Z,148
2018-01-18T14:53:32.321Z,136
2018-01-18T14:54:42.027Z,124
2018-01-18T14:55:51.736Z,116
2018-01-18T14:57:01.445Z,108
2018-01-18T14:58:11.421Z,96
2018-01-18T14:59:21.395Z,92
2018-01-18T15:00:31.129Z,84
2018-01-18T15:01:41.144Z,72
2018-01-18T15:02:50.850Z,64
2018-01-18T15:04:00.562Z,60
2018-01-18T15:05:10.273Z,52
2018-01-18T15:06:20.242Z,48
2018-01-18T15:07:30.212Z,44
2018-01-18T15:08:40.179Z,40
2018-01-18T15:09:50.147Z,36
2018-01-18T15:11:00.130Z,32
2018-01-18T15:12:09.838Z,28
2018-01-18T15:13:19.816Z,24
2018-01-18T15:14:29.624Z,20
2018-01-18T15:15:39.601Z,16
2018-01-18T15:16:49.578Z,16
2018-01-18T15:17:59.556Z,16
2018-01-18T15:19:09.262Z,12
2018-01-18T15:20:18.979Z,12
2018-01-18T15:21:28.954Z,12
2018-01-18T15:22:38.396Z,12
2018-01-18T15:23:48.368Z,8
2018-01-18T15:24:58.365Z,4
2018-01-18T15:26:08.342Z,8
2018-01-18T15:27:18.049Z,4
2018-01-18T15:28:28.019Z,8
2018-01-18T15:29:37.733Z,4
2018-01-18T15:30:47.444Z,4
2018-01-18T15:31:57.418Z,4
2018-01-18T15:33:07.399Z,0
2018-01-18T15:34:17.369Z,4
2018-01-18T15:35:26.548Z,4
2018-01-18T15:36:36.518Z,4
2018-01-18T15:37:46.228Z,0
2018-01-18T15:38:56.218Z,0
2018-01-18T15:40:06.199Z,0
2018-01-18T15:41:15.911Z,0
2018-01-18T15:42:25.358Z,0
2018-01-18T15:43:34.805Z,0
2018-01-18T15:44:44.782Z,0
2018-01-18T15:45:54.757Z,0
2018-01-18T15:47:04.758Z,0
2018-01-18T15:48:14.479Z,0
2018-01-18T15:49:24.193Z,0
2018-01-18T15:50:33.903Z,0
2018-01-18T15:51:43.622Z,0
2018-01-18T15:52:53.598Z,0
2018-01-18T15:54:03.317Z,0
2018-01-18T15:55:13.030Z,0
2018-01-18T15:56:22.477Z,0
2018-01-18T15:57:32.209Z,0
2018-01-18T15:58:42.188Z,0
2018-01-18T15:59:51.632Z,0
2018-01-18T16:01:01.608Z,0
2018-01-18T16:02:11.317Z,0
2018-01-18T16:03:20.764Z,0
2018-01-18T16:04:30.794Z,0
2018-01-18T16:05:40.766Z,0
2018-01-18T16:06:50.477Z,0
2018-01-18T16:07:59.921Z,0
2018-01-18T16:09:09.897Z,0
2018-01-18T16:10:19.873Z,0
2018-01-18T16:11:29.845Z,0
2018-01-18T16:12:39.555Z,0
2018-01-18T16:13:49.001Z,0
2018-01-18T16:14:57.918Z,0
2018-01-18T16:16:07.629Z,0
2018-01-18T16:17:17.602Z,0
2018-01-18T16:18:27.633Z,0
2018-01-18T16:19:37.637Z,0
2018-01-18T16:20:47.377Z,0
2018-01-18T16:21:57.351Z,0
2018-01-18T16:23:07.063Z,0
2018-01-18T16:24:17.049Z,0
2018-01-18T16:25:27.029Z,0
2018-01-18T16:26:36.481Z,0
2018-01-18T16:27:46.460Z,0
2018-01-18T16:28:55.644Z,0
2018-01-18T16:30:05.356Z,0
2018-01-18T16:31:15.341Z,0
2018-01-18T16:32:25.055Z,0